createdAt,value
2022-12-08T06:02:10.775Z,2.50
2022-12-08T06:04:37.509Z,2.50
2022-12-08T06:07:04.737Z,2.53
2022-12-08T06:09:31.374Z,2.51
2022-12-08T06:11:58.587Z,2.44
2022-12-08T06:14:25.176Z,2.53
2022-12-08T06:16:52.568Z,2.49
2022-12-08T06:19:19.627Z,2.44
2022-12-08T06:21:46.782Z,2.44
2022-12-08T06:24:13.426Z,2.47
2022-12-08T06:26:41.737Z,2.54
2022-12-08T06:29:08.864Z,2.57
2022-12-08T06:31:36.193Z,2.56
2022-12-08T06:34:02.883Z,2.54
2022-12-08T06:36:30.129Z,2.55
2022-12-08T06:38:57.066Z,2.53
2022-12-08T06:41:24.497Z,2.56
2022-12-08T06:43:51.139Z,2.59
2022-12-08T06:46:20.037Z,2.63
2022-12-08T06:48:47.443Z,2.62
2022-12-08T06:51:19.884Z,2.59
2022-12-08T06:53:47.030Z,2.54
2022-12-08T06:56:16.143Z,2.55
2022-12-08T06:58:46.104Z,2.57
2022-12-08T07:01:17.790Z,2.56
2022-12-08T07:03:44.589Z,2.56
2022-12-08T07:06:24.998Z,2.60
2022-12-08T07:08:52.336Z,2.61
2022-12-08T07:11:22.076Z,2.59
2022-12-08T07:13:49.410Z,2.61
2022-12-08T07:16:16.916Z,2.58
2022-12-08T07:18:44.019Z,2.59
2022-12-08T07:21:13.525Z,2.60
2022-12-08T07:23:40.147Z,2.63
2022-12-08T07:26:10.554Z,2.66
2022-12-08T07:28:39.013Z,2.67
2022-12-08T07:31:06.979Z,2.67
2022-12-08T07:33:34.536Z,2.66
2022-12-08T07:36:04.299Z,2.65
2022-12-08T07:38:31.427Z,2.66
2022-12-08T07:40:59.330Z,2.66
2022-12-08T07:43:26.286Z,2.70
2022-12-08T07:45:53.632Z,2.70
2022-12-08T07:48:20.502Z,2.68
2022-12-08T07:50:47.874Z,2.68
2022-12-08T07:53:14.707Z,2.70
2022-12-08T07:55:43.352Z,2.69
2022-12-08T07:58:10.919Z,2.71
2022-12-08T08:00:38.513Z,2.71
2022-12-08T08:03:06.060Z,2.63
2022-12-08T08:05:33.423Z,2.70
2022-12-08T08:08:00.078Z,2.73
2022-12-08T08:10:27.478Z,2.76
2022-12-08T08:12:54.275Z,2.76
2022-12-08T08:15:21.573Z,2.77
2022-12-08T08:17:51.997Z,2.77
2022-12-08T08:20:19.986Z,2.76
2022-12-08T08:22:50.296Z,2.75
2022-12-08T08:25:19.961Z,2.77
2022-12-08T08:27:46.814Z,2.77
2022-12-08T08:30:19.922Z,2.71
2022-12-08T08:32:47.807Z,2.68
2022-12-08T08:35:15.245Z,2.73
2022-12-08T08:37:45.726Z,2.79
2022-12-08T08:40:15.798Z,2.73
2022-12-08T08:42:42.332Z,2.75
2022-12-08T08:45:09.849Z,2.74
2022-12-08T08:47:37.577Z,2.69
2022-12-08T08:50:05.552Z,2.72
2022-12-08T08:52:32.492Z,2.75
2022-12-08T08:54:59.699Z,2.78
2022-12-08T08:57:26.426Z,2.82
2022-12-08T08:59:54.281Z,2.84
2022-12-08T09:02:21.271Z,2.83
2022-12-08T09:04:48.934Z,2.82
2022-12-08T09:07:16.001Z,2.80
2022-12-08T09:09:43.839Z,2.78
2022-12-08T09:12:10.783Z,2.75
2022-12-08T09:14:37.986Z,2.80
2022-12-08T09:17:05.105Z,2.76
2022-12-08T09:19:32.830Z,2.78
2022-12-08T09:21:59.376Z,2.79
2022-12-08T09:24:26.993Z,2.82
2022-12-08T09:26:53.522Z,2.85
2022-12-08T09:29:20.671Z,2.78
2022-12-08T09:31:47.344Z,2.82
2022-12-08T09:34:14.871Z,2.88
2022-12-08T09:36:41.460Z,2.89
2022-12-08T09:39:08.873Z,2.84
2022-12-08T09:41:48.632Z,2.85
2022-12-08T09:44:34.044Z,2.81
2022-12-08T09:47:03.475Z,2.85
2022-12-08T09:49:50.810Z,2.93
2022-12-08T09:52:33.627Z,2.98
2022-12-08T09:55:09.788Z,3.00
2022-12-08T09:57:36.854Z,2.94
2022-12-08T10:00:07.098Z,2.92
2022-12-08T10:02:34.486Z,2.97
2022-12-08T10:05:01.390Z,3.01
2022-12-08T10:08:04.308Z,3.04
2022-12-08T10:10:58.190Z,3.02
2022-12-08T10:13:58.071Z,3.00
2022-12-08T10:16:36.055Z,3.01
2022-12-08T10:19:17.385Z,2.95
2022-12-08T10:21:45.302Z,2.95
2022-12-08T10:24:22.271Z,2.97
2022-12-08T10:26:49.666Z,2.99
2022-12-08T10:29:16.331Z,3.00
2022-12-08T10:31:43.881Z,3.06
2022-12-08T10:34:18.955Z,3.07
2022-12-08T10:36:54.606Z,3.15
2022-12-08T10:39:45.640Z,3.19
2022-12-08T10:42:15.785Z,3.19
2022-12-08T10:45:08.515Z,3.21
2022-12-08T10:47:44.632Z,3.21
2022-12-08T10:50:23.988Z,3.25
2022-12-08T10:53:00.080Z,3.31
2022-12-08T10:55:27.349Z,3.31
2022-12-08T10:57:54.532Z,3.33
2022-12-08T11:00:24.775Z,3.37
2022-12-08T11:02:56.862Z,3.41
2022-12-08T11:05:28.113Z,3.40
2022-12-08T11:07:56.228Z,3.41
2022-12-08T11:10:32.280Z,3.41
2022-12-08T11:13:06.298Z,3.40
2022-12-08T11:15:39.934Z,3.40
2022-12-08T11:18:10.740Z,3.39
2022-12-08T11:20:41.887Z,3.43
2022-12-08T11:23:24.348Z,3.50
2022-12-08T11:25:52.305Z,3.50
2022-12-08T11:28:24.581Z,3.50
2022-12-08T11:31:32.489Z,3.49
2022-12-08T11:33:59.194Z,3.53
2022-12-08T11:36:29.665Z,3.60
2022-12-08T11:38:59.684Z,3.60
2022-12-08T11:41:37.664Z,3.65
2022-12-08T11:44:28.662Z,3.65
2022-12-08T11:47:09.035Z,3.65
2022-12-08T11:49:39.406Z,3.70
2022-12-08T11:52:18.621Z,3.78
2022-12-08T11:54:52.385Z,3.80
2022-12-08T11:57:23.445Z,3.78
2022-12-08T11:59:54.306Z,3.74
2022-12-08T12:02:27.686Z,3.78
2022-12-08T12:05:09.090Z,3.74
2022-12-08T12:08:06.830Z,3.85
2022-12-08T12:10:54.911Z,3.86
2022-12-08T12:13:57.412Z,3.80
2022-12-08T12:16:53.643Z,3.76
2022-12-08T12:19:22.514Z,3.67
2022-12-08T12:21:56.728Z,3.58
2022-12-08T12:24:36.072Z,3.67
2022-12-08T12:27:16.446Z,3.66
2022-12-08T12:29:56.537Z,3.60
2022-12-08T12:32:25.004Z,3.64
2022-12-08T12:35:00.258Z,3.58
2022-12-08T12:37:40.002Z,3.63
2022-12-08T12:40:17.764Z,3.70
2022-12-08T12:43:14.493Z,3.72
2022-12-08T12:45:43.818Z,3.72
2022-12-08T12:48:29.270Z,3.73
2022-12-08T12:50:56.726Z,3.77
2022-12-08T12:53:24.522Z,3.69
2022-12-08T12:55:55.071Z,3.72
2022-12-08T12:58:28.218Z,3.74
2022-12-08T13:01:10.427Z,3.79
2022-12-08T13:03:45.732Z,3.76
2022-12-08T13:06:15.028Z,3.72
2022-12-08T13:08:53.514Z,3.72
2022-12-08T13:11:22.123Z,3.71
2022-12-08T13:13:57.624Z,3.68
2022-12-08T13:16:28.141Z,3.65
2022-12-08T13:19:02.204Z,3.65
2022-12-08T13:21:37.451Z,3.61
2022-12-08T13:24:26.723Z,3.61
2022-12-08T13:27:05.955Z,3.57
2022-12-08T13:29:33.589Z,3.61
2022-12-08T13:32:03.142Z,3.45
2022-12-08T13:34:45.457Z,3.43
2022-12-08T13:37:12.679Z,3.45
2022-12-08T13:39:39.175Z,3.51
2022-12-08T13:42:17.345Z,3.59
2022-12-08T13:45:24.125Z,3.58
2022-12-08T13:47:59.581Z,3.49
2022-12-08T13:57:02.663Z,3.57
2022-12-08T13:59:30.622Z,3.58
2022-12-08T14:02:03.998Z,3.49
2022-12-08T14:04:47.849Z,3.54
2022-12-08T14:07:18.667Z,3.55
2022-12-08T14:09:46.223Z,3.49
2022-12-08T14:12:22.683Z,3.52
2022-12-08T14:15:03.273Z,3.46
2022-12-08T14:17:31.141Z,3.41
2022-12-08T14:19:57.714Z,3.41
2022-12-08T14:22:24.940Z,3.41
2022-12-08T14:24:53.626Z,3.38
2022-12-08T14:27:26.140Z,3.31
2022-12-08T14:29:58.234Z,3.27
2022-12-08T14:32:42.048Z,3.23
2022-12-08T14:35:08.616Z,3.23
2022-12-08T14:37:42.457Z,3.24
2022-12-08T14:40:37.942Z,3.25
2022-12-08T14:43:08.116Z,3.23
2022-12-08T14:45:46.715Z,3.23
2022-12-08T14:48:33.818Z,3.19
2022-12-08T14:51:03.396Z,3.15
2022-12-08T14:53:39.883Z,3.13
2022-12-08T14:56:23.481Z,3.14
2022-12-08T14:59:03.501Z,3.15
2022-12-08T15:01:30.472Z,3.15
2022-12-08T15:04:12.928Z,3.15
2022-12-08T15:07:15.065Z,3.11
2022-12-08T15:09:48.939Z,3.10
2022-12-08T15:12:15.558Z,3.07
2022-12-08T15:14:54.595Z,3.04
2022-12-08T15:17:32.191Z,3.00
2022-12-08T15:20:00.152Z,2.96
2022-12-08T15:22:28.168Z,2.94
2022-12-08T15:24:56.004Z,2.90
2022-12-08T15:27:25.496Z,2.87
2022-12-08T15:29:52.574Z,2.85
2022-12-08T15:32:24.301Z,2.79
2022-12-08T15:34:50.943Z,2.77
2022-12-08T15:37:25.518Z,2.74
2022-12-08T15:39:52.756Z,2.67
2022-12-08T15:42:19.674Z,2.64
2022-12-08T15:44:47.349Z,2.64
2022-12-08T15:47:22.268Z,2.62
2022-12-08T15:49:50.853Z,2.61
2022-12-08T15:52:20.620Z,2.64
2022-12-08T15:54:49.217Z,2.59
2022-12-08T16:00:51.940Z,2.59
2022-12-08T16:09:40.540Z,2.54
2022-12-08T16:13:13.878Z,2.55
2022-12-08T16:18:16.018Z,2.49
2022-12-08T16:21:07.509Z,2.43
2022-12-08T16:23:42.829Z,2.31
2022-12-08T16:26:49.086Z,2.32
2022-12-08T16:29:00.865Z,2.35
2022-12-08T16:31:27.529Z,2.38
2022-12-08T16:33:54.819Z,2.36
2022-12-08T16:36:21.404Z,2.35
2022-12-08T16:38:48.574Z,2.32
2022-12-08T16:41:34.595Z,2.33
2022-12-08T16:44:06.373Z,2.36
2022-12-08T16:46:33.167Z,2.39
2022-12-08T16:49:00.364Z,2.42
2022-12-08T16:51:27.623Z,2.37
2022-12-08T16:53:57.166Z,2.34
2022-12-08T16:56:30.423Z,2.37
2022-12-08T16:59:00.089Z,2.35
2022-12-08T17:01:26.738Z,2.43
2022-12-08T17:04:29.223Z,2.42
2022-12-08T17:06:40.663Z,2.40
2022-12-08T17:09:07.646Z,2.43
2022-12-08T17:11:40.757Z,2.44
2022-12-08T17:14:09.658Z,2.52
2022-12-08T17:16:36.228Z,2.50
2022-12-08T17:19:03.246Z,2.52
2022-12-08T17:21:29.777Z,2.46
2022-12-08T17:23:56.766Z,2.51
2022-12-08T17:26:23.331Z,2.53
2022-12-08T17:29:05.541Z,2.54
2022-12-08T17:31:32.999Z,2.54
2022-12-08T17:34:05.976Z,2.57
2022-12-08T17:36:32.652Z,2.62
2022-12-08T17:39:01.268Z,2.65
2022-12-08T17:41:29.050Z,2.63
2022-12-08T17:43:56.796Z,2.62
2022-12-08T17:46:24.145Z,2.59
2022-12-08T17:48:51.718Z,2.62
2022-12-08T17:51:18.484Z,2.60
2022-12-08T17:53:46.246Z,2.58
2022-12-08T17:56:19.053Z,2.57
2022-12-08T17:58:51.354Z,2.56
2022-12-08T18:01:22.576Z,2.59
2022-12-08T18:03:50.028Z,2.55
2022-12-08T18:06:17.624Z,2.56
2022-12-08T18:08:45.573Z,2.56
2022-12-08T18:11:19.658Z,2.53
2022-12-08T18:13:48.362Z,2.56
2022-12-08T18:16:15.927Z,2.59
2022-12-08T18:18:43.406Z,2.61
2022-12-08T18:21:10.651Z,2.67
2022-12-08T18:23:39.050Z,2.69
2022-12-08T18:26:07.652Z,2.70
2022-12-08T18:28:36.254Z,2.71
2022-12-08T18:31:07.569Z,2.70
2022-12-08T18:33:34.818Z,2.64
2022-12-08T18:36:01.401Z,2.63
2022-12-08T18:38:28.590Z,2.69
2022-12-08T18:40:55.123Z,2.69
2022-12-08T18:43:22.254Z,2.70
2022-12-08T18:45:48.813Z,2.72
2022-12-08T18:48:15.992Z,2.67
2022-12-08T18:50:44.641Z,2.69
2022-12-08T18:53:11.815Z,2.64
2022-12-08T18:55:38.337Z,2.61
2022-12-08T18:58:05.526Z,2.60
2022-12-08T19:00:32.043Z,2.62
2022-12-08T19:02:59.224Z,2.61
2022-12-08T19:05:25.807Z,2.59
2022-12-08T19:07:52.821Z,2.61
2022-12-08T19:10:20.068Z,2.64
2022-12-08T19:12:50.278Z,2.59
2022-12-08T19:15:17.529Z,2.64
2022-12-08T19:17:44.140Z,2.66
2022-12-08T19:20:12.614Z,2.70
2022-12-08T19:22:39.170Z,2.72
2022-12-08T19:25:06.937Z,2.71
2022-12-08T19:27:34.125Z,2.67
2022-12-08T19:30:01.293Z,2.63
2022-12-08T19:32:29.822Z,2.66
2022-12-08T19:34:57.006Z,2.59
2022-12-08T19:37:23.581Z,2.57
2022-12-08T19:40:09.643Z,2.59
2022-12-08T19:42:54.844Z,2.64
2022-12-08T19:45:22.029Z,2.62
2022-12-08T19:47:49.352Z,2.57
2022-12-08T19:50:34.920Z,2.61
2022-12-08T19:53:04.230Z,2.59
2022-12-08T19:55:30.808Z,2.57
2022-12-08T19:57:58.284Z,2.56
2022-12-08T20:00:25.963Z,2.52
2022-12-08T20:02:52.609Z,2.45
2022-12-08T20:05:19.939Z,2.36
2022-12-08T20:07:47.009Z,2.32
2022-12-08T20:10:35.558Z,2.34
2022-12-08T20:13:21.923Z,2.39
2022-12-08T20:15:48.641Z,2.43
2022-12-08T20:18:16.056Z,2.47
2022-12-08T20:20:44.355Z,2.44
2022-12-08T20:23:12.012Z,2.34
2022-12-08T20:25:39.881Z,2.32
2022-12-08T20:28:07.266Z,2.29
2022-12-08T20:30:34.292Z,2.30
2022-12-08T20:33:01.444Z,2.27
2022-12-08T20:35:28.039Z,2.30
2022-12-08T20:37:54.958Z,2.32
2022-12-08T20:40:21.574Z,2.27
2022-12-08T20:42:49.354Z,2.27
2022-12-08T20:45:16.033Z,2.31
2022-12-08T20:47:42.907Z,2.33
2022-12-08T20:50:10.896Z,2.39
2022-12-08T20:52:37.916Z,2.44
2022-12-08T20:55:06.942Z,2.48
2022-12-08T20:57:33.837Z,2.50
2022-12-08T21:00:01.049Z,2.50
2022-12-08T21:02:27.981Z,2.52
2022-12-08T21:04:55.363Z,2.50
2022-12-08T21:07:22.198Z,2.50
2022-12-08T21:09:49.626Z,2.51
2022-12-08T21:12:16.226Z,2.47
2022-12-08T21:14:43.897Z,2.44
2022-12-08T21:17:10.725Z,2.40
2022-12-08T21:19:38.289Z,2.42
2022-12-08T21:22:05.018Z,2.42
2022-12-08T21:24:34.251Z,2.44
2022-12-08T21:27:01.530Z,2.44
2022-12-08T21:29:28.935Z,2.44
